sensor_id;sensor_type;location;lat;lon;timestamp;temperature;humidity
56076;DHT22;41951;49.022;12.066;2023-04-25T00:02:02;9.50;99.90
56076;DHT22;41951;49.022;12.066;2023-04-25T00:04:29;10.10;99.90
56076;DHT22;41951;49.022;12.066;2023-04-25T00:06:55;9.40;99.90
56076;DHT22;41951;49.022;12.066;2023-04-25T00:09:21;9.40;99.90
56076;DHT22;41951;49.022;12.066;2023-04-25T00:11:47;9.40;99.90
56076;DHT22;41951;49.022;12.066;2023-04-25T00:14:12;9.30;99.90
56076;DHT22;41951;49.022;12.066;2023-04-25T00:16:38;9.30;99.90
56076;DHT22;41951;49.022;12.066;2023-04-25T00:19:04;9.30;99.90
56076;DHT22;41951;49.022;12.066;2023-04-25T00:21:30;9.30;99.90
56076;DHT22;41951;49.022;12.066;2023-04-25T00:23:57;9.20;99.90
56076;DHT22;41951;49.022;12.066;2023-04-25T00:26:22;9.20;99.90
56076;DHT22;41951;49.022;12.066;2023-04-25T00:28:48;9.30;99.90
56076;DHT22;41951;49.022;12.066;2023-04-25T00:31:14;9.40;99.90
56076;DHT22;41951;49.022;12.066;2023-04-25T00:33:40;9.30;99.90
56076;DHT22;41951;49.022;12.066;2023-04-25T00:36:06;9.30;99.90
56076;DHT22;41951;49.022;12.066;2023-04-25T00:38:32;9.20;99.90
56076;DHT22;41951;49.022;12.066;2023-04-25T00:40:58;9.20;99.90
56076;DHT22;41951;49.022;12.066;2023-04-25T00:43:26;9.20;99.90
56076;DHT22;41951;49.022;12.066;2023-04-25T00:45:52;9.20;99.90
56076;DHT22;41951;49.022;12.066;2023-04-25T00:48:19;9.20;99.90
56076;DHT22;41951;49.022;12.066;2023-04-25T00:50:53;9.20;99.90
56076;DHT22;41951;49.022;12.066;2023-04-25T00:53:24;9.10;99.90
56076;DHT22;41951;49.022;12.066;2023-04-25T00:55:50;9.20;99.90
56076;DHT22;41951;49.022;12.066;2023-04-25T00:58:17;9.20;99.90
56076;DHT22;41951;49.022;12.066;2023-04-25T01:00:47;9.30;99.90
56076;DHT22;41951;49.022;12.066;2023-04-25T01:03:16;9.20;99.90
56076;DHT22;41951;49.022;12.066;2023-04-25T01:05:43;9.10;99.90
56076;DHT22;41951;49.022;12.066;2023-04-25T01:08:09;9.10;99.90
56076;DHT22;41951;49.022;12.066;2023-04-25T01:10:35;9.20;99.90
56076;DHT22;41951;49.022;12.066;2023-04-25T01:13:01;9.20;99.90
56076;DHT22;41951;49.022;12.066;2023-04-25T01:15:27;9.20;99.90
56076;DHT22;41951;49.022;12.066;2023-04-25T01:17:53;9.20;99.90
56076;DHT22;41951;49.022;12.066;2023-04-25T01:20:22;9.20;99.90
56076;DHT22;41951;49.022;12.066;2023-04-25T01:22:52;9.20;99.90
56076;DHT22;41951;49.022;12.066;2023-04-25T01:25:19;9.20;99.90
56076;DHT22;41951;49.022;12.066;2023-04-25T01:27:45;9.30;99.90
56076;DHT22;41951;49.022;12.066;2023-04-25T01:30:11;9.40;99.90
56076;DHT22;41951;49.022;12.066;2023-04-25T01:32:37;9.20;99.90
56076;DHT22;41951;49.022;12.066;2023-04-25T01:35:10;9.20;99.90
56076;DHT22;41951;49.022;12.066;2023-04-25T01:37:40;9.10;99.90
56076;DHT22;41951;49.022;12.066;2023-04-25T01:40:06;9.20;99.90
56076;DHT22;41951;49.022;12.066;2023-04-25T01:42:33;9.10;99.90
56076;DHT22;41951;49.022;12.066;2023-04-25T01:45:00;9.00;99.90
56076;DHT22;41951;49.022;12.066;2023-04-25T01:47:25;9.10;99.90
56076;DHT22;41951;49.022;12.066;2023-04-25T01:49:51;9.10;99.90
56076;DHT22;41951;49.022;12.066;2023-04-25T01:52:16;9.10;99.90
56076;DHT22;41951;49.022;12.066;2023-04-25T01:54:42;9.10;99.90
56076;DHT22;41951;49.022;12.066;2023-04-25T01:57:10;9.10;99.90
56076;DHT22;41951;49.022;12.066;2023-04-25T01:59:36;9.10;99.90
56076;DHT22;41951;49.022;12.066;2023-04-25T02:02:02;9.20;99.90
56076;DHT22;41951;49.022;12.066;2023-04-25T02:04:29;9.10;99.90
56076;DHT22;41951;49.022;12.066;2023-04-25T02:06:55;9.10;99.90
56076;DHT22;41951;49.022;12.066;2023-04-25T02:09:21;9.10;99.90
56076;DHT22;41951;49.022;12.066;2023-04-25T02:11:46;9.10;99.90
56076;DHT22;41951;49.022;12.066;2023-04-25T02:14:12;9.10;99.90
56076;DHT22;41951;49.022;12.066;2023-04-25T02:16:37;9.00;99.90
56076;DHT22;41951;49.022;12.066;2023-04-25T02:19:05;9.00;99.90
56076;DHT22;41951;49.022;12.066;2023-04-25T02:21:31;9.00;99.90
56076;DHT22;41951;49.022;12.066;2023-04-25T02:23:57;8.90;99.90
56076;DHT22;41951;49.022;12.066;2023-04-25T02:26:23;8.90;99.90
56076;DHT22;41951;49.022;12.066;2023-04-25T02:28:51;9.00;99.90
56076;DHT22;41951;49.022;12.066;2023-04-25T02:31:17;9.00;99.90
56076;DHT22;41951;49.022;12.066;2023-04-25T02:33:42;9.00;99.90
56076;DHT22;41951;49.022;12.066;2023-04-25T02:36:08;9.00;99.90
56076;DHT22;41951;49.022;12.066;2023-04-25T02:38:34;9.00;99.90
56076;DHT22;41951;49.022;12.066;2023-04-25T02:40:59;9.00;99.90
56076;DHT22;41951;49.022;12.066;2023-04-25T02:43:25;9.00;99.90
56076;DHT22;41951;49.022;12.066;2023-04-25T02:45:51;8.90;99.90
56076;DHT22;41951;49.022;12.066;2023-04-25T02:48:16;9.00;99.90
56076;DHT22;41951;49.022;12.066;2023-04-25T02:50:42;9.00;99.90
56076;DHT22;41951;49.022;12.066;2023-04-25T02:53:08;8.90;99.90
56076;DHT22;41951;49.022;12.066;2023-04-25T02:55:33;8.80;99.90
56076;DHT22;41951;49.022;12.066;2023-04-25T02:57:59;8.70;99.90
56076;DHT22;41951;49.022;12.066;2023-04-25T03:00:24;8.60;99.90
56076;DHT22;41951;49.022;12.066;2023-04-25T03:02:50;8.60;99.90
56076;DHT22;41951;49.022;12.066;2023-04-25T03:05:16;8.50;99.90
56076;DHT22;41951;49.022;12.066;2023-04-25T03:07:42;8.60;99.90
56076;DHT22;41951;49.022;12.066;2023-04-25T03:10:09;8.60;99.90
56076;DHT22;41951;49.022;12.066;2023-04-25T03:12:35;8.60;99.90
56076;DHT22;41951;49.022;12.066;2023-04-25T03:15:01;8.60;99.90
56076;DHT22;41951;49.022;12.066;2023-04-25T03:17:27;8.60;99.90
56076;DHT22;41951;49.022;12.066;2023-04-25T03:19:52;8.60;99.90
56076;DHT22;41951;49.022;12.066;2023-04-25T03:22:18;8.60;99.90
56076;DHT22;41951;49.022;12.066;2023-04-25T03:24:43;8.60;99.90
56076;DHT22;41951;49.022;12.066;2023-04-25T03:27:09;8.70;99.90
56076;DHT22;41951;49.022;12.066;2023-04-25T03:29:35;8.70;99.90
56076;DHT22;41951;49.022;12.066;2023-04-25T03:32:00;8.70;99.90
56076;DHT22;41951;49.022;12.066;2023-04-25T03:34:26;8.70;99.90
56076;DHT22;41951;49.022;12.066;2023-04-25T03:36:51;8.70;99.90
56076;DHT22;41951;49.022;12.066;2023-04-25T03:39:17;8.70;99.90
56076;DHT22;41951;49.022;12.066;2023-04-25T03:41:43;8.80;99.90
56076;DHT22;41951;49.022;12.066;2023-04-25T03:44:08;8.80;99.90
56076;DHT22;41951;49.022;12.066;2023-04-25T03:46:34;8.80;99.90
56076;DHT22;41951;49.022;12.066;2023-04-25T03:48:59;8.80;99.90
56076;DHT22;41951;49.022;12.066;2023-04-25T03:51:25;8.70;99.90
56076;DHT22;41951;49.022;12.066;2023-04-25T03:53:52;8.70;99.90
56076;DHT22;41951;49.022;12.066;2023-04-25T03:56:17;8.80;99.90
56076;DHT22;41951;49.022;12.066;2023-04-25T03:58:43;8.80;99.90
56076;DHT22;41951;49.022;12.066;2023-04-25T04:01:09;8.90;99.90
56076;DHT22;41951;49.022;12.066;2023-04-25T04:03:35;8.90;99.90
56076;DHT22;41951;49.022;12.066;2023-04-25T04:06:03;8.90;99.90
56076;DHT22;41951;49.022;12.066;2023-04-25T04:08:29;8.90;99.90
56076;DHT22;41951;49.022;12.066;2023-04-25T04:10:56;8.90;99.90
56076;DHT22;41951;49.022;12.066;2023-04-25T04:13:22;8.90;99.90
56076;DHT22;41951;49.022;12.066;2023-04-25T04:15:47;8.90;99.90
56076;DHT22;41951;49.022;12.066;2023-04-25T04:18:13;8.90;99.90
56076;DHT22;41951;49.022;12.066;2023-04-25T04:20:38;8.90;99.90
56076;DHT22;41951;49.022;12.066;2023-04-25T04:23:04;8.80;99.90
56076;DHT22;41951;49.022;12.066;2023-04-25T04:25:30;8.80;99.90
56076;DHT22;41951;49.022;12.066;2023-04-25T04:27:56;8.80;99.90
56076;DHT22;41951;49.022;12.066;2023-04-25T04:30:23;8.90;99.90
56076;DHT22;41951;49.022;12.066;2023-04-25T04:32:56;8.80;99.90
56076;DHT22;41951;49.022;12.066;2023-04-25T04:35:22;8.80;99.90
56076;DHT22;41951;49.022;12.066;2023-04-25T04:37:48;8.80;99.90
56076;DHT22;41951;49.022;12.066;2023-04-25T04:40:14;8.80;99.90
56076;DHT22;41951;49.022;12.066;2023-04-25T04:42:44;8.80;99.90
56076;DHT22;41951;49.022;12.066;2023-04-25T04:45:11;8.90;99.90
56076;DHT22;41951;49.022;12.066;2023-04-25T04:47:38;8.80;99.90
56076;DHT22;41951;49.022;12.066;2023-04-25T04:50:06;8.90;99.90
56076;DHT22;41951;49.022;12.066;2023-04-25T04:52:34;8.80;99.90
56076;DHT22;41951;49.022;12.066;2023-04-25T04:55:00;8.80;99.90
56076;DHT22;41951;49.022;12.066;2023-04-25T04:57:26;8.70;99.90
56076;DHT22;41951;49.022;12.066;2023-04-25T04:59:51;8.60;99.90
56076;DHT22;41951;49.022;12.066;2023-04-25T05:02:17;8.70;99.90
56076;DHT22;41951;49.022;12.066;2023-04-25T05:04:43;8.50;99.90
56076;DHT22;41951;49.022;12.066;2023-04-25T05:07:08;8.60;99.90
56076;DHT22;41951;49.022;12.066;2023-04-25T05:09:34;8.50;99.90
56076;DHT22;41951;49.022;12.066;2023-04-25T05:11:59;8.50;99.90
56076;DHT22;41951;49.022;12.066;2023-04-25T05:14:26;8.50;99.90
56076;DHT22;41951;49.022;12.066;2023-04-25T05:16:52;8.60;99.90
56076;DHT22;41951;49.022;12.066;2023-04-25T05:19:17;8.60;99.90
56076;DHT22;41951;49.022;12.066;2023-04-25T05:21:43;8.70;99.90
56076;DHT22;41951;49.022;12.066;2023-04-25T05:24:09;8.60;99.90
56076;DHT22;41951;49.022;12.066;2023-04-25T05:26:34;8.60;99.90
56076;DHT22;41951;49.022;12.066;2023-04-25T05:29:00;8.60;99.90
56076;DHT22;41951;49.022;12.066;2023-04-25T05:31:26;8.60;99.90
56076;DHT22;41951;49.022;12.066;2023-04-25T05:33:52;8.70;99.90
56076;DHT22;41951;49.022;12.066;2023-04-25T05:36:19;8.80;99.90
56076;DHT22;41951;49.022;12.066;2023-04-25T05:38:45;8.90;99.90
56076;DHT22;41951;49.022;12.066;2023-04-25T05:41:10;9.00;99.90
56076;DHT22;41951;49.022;12.066;2023-04-25T05:43:36;9.10;99.90
56076;DHT22;41951;49.022;12.066;2023-04-25T05:46:01;9.10;99.90
56076;DHT22;41951;49.022;12.066;2023-04-25T05:48:27;9.20;99.90
56076;DHT22;41951;49.022;12.066;2023-04-25T05:50:53;9.20;99.90
56076;DHT22;41951;49.022;12.066;2023-04-25T05:53:19;9.30;99.90
56076;DHT22;41951;49.022;12.066;2023-04-25T05:55:46;9.40;99.90
56076;DHT22;41951;49.022;12.066;2023-04-25T05:58:12;9.50;99.90
56076;DHT22;41951;49.022;12.066;2023-04-25T06:00:37;9.50;99.90
56076;DHT22;41951;49.022;12.066;2023-04-25T06:03:03;9.60;99.90
56076;DHT22;41951;49.022;12.066;2023-04-25T06:05:29;9.70;99.90
56076;DHT22;41951;49.022;12.066;2023-04-25T06:07:55;9.80;99.90
56076;DHT22;41951;49.022;12.066;2023-04-25T06:10:21;9.80;99.90
56076;DHT22;41951;49.022;12.066;2023-04-25T06:12:48;9.70;99.90
56076;DHT22;41951;49.022;12.066;2023-04-25T06:15:13;9.70;99.90
56076;DHT22;41951;49.022;12.066;2023-04-25T06:17:39;9.60;99.90
56076;DHT22;41951;49.022;12.066;2023-04-25T06:20:05;9.70;99.90
56076;DHT22;41951;49.022;12.066;2023-04-25T06:22:31;9.70;99.90
56076;DHT22;41951;49.022;12.066;2023-04-25T06:24:56;9.70;99.90
56076;DHT22;41951;49.022;12.066;2023-04-25T06:27:24;9.70;99.90
56076;DHT22;41951;49.022;12.066;2023-04-25T06:29:50;9.70;99.90
56076;DHT22;41951;49.022;12.066;2023-04-25T06:32:15;9.70;99.90
56076;DHT22;41951;49.022;12.066;2023-04-25T06:34:43;9.70;99.90
56076;DHT22;41951;49.022;12.066;2023-04-25T06:37:09;9.70;99.90
56076;DHT22;41951;49.022;12.066;2023-04-25T06:39:34;9.70;99.90
56076;DHT22;41951;49.022;12.066;2023-04-25T06:42:00;9.60;99.90
56076;DHT22;41951;49.022;12.066;2023-04-25T06:44:25;9.60;99.90
56076;DHT22;41951;49.022;12.066;2023-04-25T06:46:51;9.70;99.90
56076;DHT22;41951;49.022;12.066;2023-04-25T06:49:17;9.80;99.90
56076;DHT22;41951;49.022;12.066;2023-04-25T06:51:42;9.90;99.90
56076;DHT22;41951;49.022;12.066;2023-04-25T06:54:08;10.00;99.90
56076;DHT22;41951;49.022;12.066;2023-04-25T06:56:34;10.20;99.90
56076;DHT22;41951;49.022;12.066;2023-04-25T06:58:59;10.20;99.90
56076;DHT22;41951;49.022;12.066;2023-04-25T07:01:26;10.20;99.90
56076;DHT22;41951;49.022;12.066;2023-04-25T07:03:51;10.20;99.90
56076;DHT22;41951;49.022;12.066;2023-04-25T07:06:17;10.20;99.90
56076;DHT22;41951;49.022;12.066;2023-04-25T07:08:42;10.20;99.90
56076;DHT22;41951;49.022;12.066;2023-04-25T07:11:08;10.20;99.90
56076;DHT22;41951;49.022;12.066;2023-04-25T07:13:34;10.30;99.90
56076;DHT22;41951;49.022;12.066;2023-04-25T07:16:00;10.20;99.90
56076;DHT22;41951;49.022;12.066;2023-04-25T07:18:25;10.10;99.90
56076;DHT22;41951;49.022;12.066;2023-04-25T07:20:51;10.10;99.90
56076;DHT22;41951;49.022;12.066;2023-04-25T07:23:16;10.20;99.90
56076;DHT22;41951;49.022;12.066;2023-04-25T07:25:42;10.20;99.90
56076;DHT22;41951;49.022;12.066;2023-04-25T07:28:08;10.30;99.90
56076;DHT22;41951;49.022;12.066;2023-04-25T07:30:33;10.50;99.90
56076;DHT22;41951;49.022;12.066;2023-04-25T07:33:00;10.60;99.90
56076;DHT22;41951;49.022;12.066;2023-04-25T07:35:25;10.70;99.90
56076;DHT22;41951;49.022;12.066;2023-04-25T07:37:51;10.70;99.90
56076;DHT22;41951;49.022;12.066;2023-04-25T07:40:17;11.30;99.90
56076;DHT22;41951;49.022;12.066;2023-04-25T07:42:42;10.50;99.90
56076;DHT22;41951;49.022;12.066;2023-04-25T07:45:08;10.50;99.90
56076;DHT22;41951;49.022;12.066;2023-04-25T07:47:34;10.50;99.90
56076;DHT22;41951;49.022;12.066;2023-04-25T07:50:00;10.40;99.90
56076;DHT22;41951;49.022;12.066;2023-04-25T07:52:26;10.40;99.90
56076;DHT22;41951;49.022;12.066;2023-04-25T07:54:51;10.40;99.90
56076;DHT22;41951;49.022;12.066;2023-04-25T07:57:17;10.50;99.90
56076;DHT22;41951;49.022;12.066;2023-04-25T07:59:43;10.50;99.90
56076;DHT22;41951;49.022;12.066;2023-04-25T08:02:09;10.50;99.90
56076;DHT22;41951;49.022;12.066;2023-04-25T08:04:35;10.60;99.90
56076;DHT22;41951;49.022;12.066;2023-04-25T08:07:00;10.70;99.90
56076;DHT22;41951;49.022;12.066;2023-04-25T08:09:26;10.80;99.90
56076;DHT22;41951;49.022;12.066;2023-04-25T08:11:51;11.10;99.90
56076;DHT22;41951;49.022;12.066;2023-04-25T08:14:17;11.30;99.90
56076;DHT22;41951;49.022;12.066;2023-04-25T08:16:43;11.50;99.90
56076;DHT22;41951;49.022;12.066;2023-04-25T08:19:09;11.60;99.90
56076;DHT22;41951;49.022;12.066;2023-04-25T08:21:34;11.50;99.90
56076;DHT22;41951;49.022;12.066;2023-04-25T08:24:00;11.40;99.90
56076;DHT22;41951;49.022;12.066;2023-04-25T08:26:26;11.40;99.90
56076;DHT22;41951;49.022;12.066;2023-04-25T08:28:51;11.50;99.90
56076;DHT22;41951;49.022;12.066;2023-04-25T08:31:17;11.60;99.90
56076;DHT22;41951;49.022;12.066;2023-04-25T08:33:43;11.50;99.90
56076;DHT22;41951;49.022;12.066;2023-04-25T08:36:09;11.30;99.90
56076;DHT22;41951;49.022;12.066;2023-04-25T08:38:35;11.20;99.90
56076;DHT22;41951;49.022;12.066;2023-04-25T08:41:02;11.30;99.90
56076;DHT22;41951;49.022;12.066;2023-04-25T08:43:29;11.40;99.90
56076;DHT22;41951;49.022;12.066;2023-04-25T08:45:59;11.60;99.90
56076;DHT22;41951;49.022;12.066;2023-04-25T08:48:27;11.70;99.90
56076;DHT22;41951;49.022;12.066;2023-04-25T08:50:55;11.80;99.90
56076;DHT22;41951;49.022;12.066;2023-04-25T08:53:32;11.70;99.90
56076;DHT22;41951;49.022;12.066;2023-04-25T08:55:59;11.80;99.90
56076;DHT22;41951;49.022;12.066;2023-04-25T08:58:25;11.70;99.90
56076;DHT22;41951;49.022;12.066;2023-04-25T09:00:52;11.80;99.90
56076;DHT22;41951;49.022;12.066;2023-04-25T09:03:18;11.70;99.90
56076;DHT22;41951;49.022;12.066;2023-04-25T09:05:44;11.50;99.90
56076;DHT22;41951;49.022;12.066;2023-04-25T09:08:10;11.40;99.90
56076;DHT22;41951;49.022;12.066;2023-04-25T09:10:36;11.30;99.90
56076;DHT22;41951;49.022;12.066;2023-04-25T09:13:10;11.10;99.90
56076;DHT22;41951;49.022;12.066;2023-04-25T09:15:51;11.10;99.90
56076;DHT22;41951;49.022;12.066;2023-04-25T09:18:28;11.00;99.90
56076;DHT22;41951;49.022;12.066;2023-04-25T09:21:04;10.90;99.90
56076;DHT22;41951;49.022;12.066;2023-04-25T09:23:31;10.90;99.90
56076;DHT22;41951;49.022;12.066;2023-04-25T09:26:03;10.80;99.90
56076;DHT22;41951;49.022;12.066;2023-04-25T09:28:31;11.10;99.90
56076;DHT22;41951;49.022;12.066;2023-04-25T09:30:57;11.00;99.90
56076;DHT22;41951;49.022;12.066;2023-04-25T09:33:33;11.00;99.90
56076;DHT22;41951;49.022;12.066;2023-04-25T09:36:06;11.00;99.90
56076;DHT22;41951;49.022;12.066;2023-04-25T09:38:43;11.00;99.90
56076;DHT22;41951;49.022;12.066;2023-04-25T09:41:09;11.30;99.90
56076;DHT22;41951;49.022;12.066;2023-04-25T09:43:36;11.70;99.90
56076;DHT22;41951;49.022;12.066;2023-04-25T09:46:02;11.70;99.90
56076;DHT22;41951;49.022;12.066;2023-04-25T09:48:28;11.70;99.90
56076;DHT22;41951;49.022;12.066;2023-04-25T09:51:06;11.40;99.90
56076;DHT22;41951;49.022;12.066;2023-04-25T09:53:46;11.20;99.90
56076;DHT22;41951;49.022;12.066;2023-04-25T09:56:12;11.20;99.90
56076;DHT22;41951;49.022;12.066;2023-04-25T09:58:39;11.00;99.90
56076;DHT22;41951;49.022;12.066;2023-04-25T10:01:07;11.00;99.90
56076;DHT22;41951;49.022;12.066;2023-04-25T10:03:34;11.10;99.90
56076;DHT22;41951;49.022;12.066;2023-04-25T10:06:02;11.00;99.90
56076;DHT22;41951;49.022;12.066;2023-04-25T10:08:38;11.00;99.90
56076;DHT22;41951;49.022;12.066;2023-04-25T10:11:06;11.00;99.90
56076;DHT22;41951;49.022;12.066;2023-04-25T10:13:33;10.90;99.90
56076;DHT22;41951;49.022;12.066;2023-04-25T10:16:00;11.00;99.90
56076;DHT22;41951;49.022;12.066;2023-04-25T10:18:29;11.10;99.90
56076;DHT22;41951;49.022;12.066;2023-04-25T10:21:00;11.20;99.90
56076;DHT22;41951;49.022;12.066;2023-04-25T10:23:27;11.30;99.90
56076;DHT22;41951;49.022;12.066;2023-04-25T10:25:55;11.30;99.90
56076;DHT22;41951;49.022;12.066;2023-04-25T10:28:21;11.10;99.90
56076;DHT22;41951;49.022;12.066;2023-04-25T10:31:07;10.90;99.90
56076;DHT22;41951;49.022;12.066;2023-04-25T10:33:35;10.70;99.90
56076;DHT22;41951;49.022;12.066;2023-04-25T10:36:15;10.60;99.90
56076;DHT22;41951;49.022;12.066;2023-04-25T10:38:43;10.50;99.90
56076;DHT22;41951;49.022;12.066;2023-04-25T10:41:10;10.50;99.90
56076;DHT22;41951;49.022;12.066;2023-04-25T10:43:44;10.50;99.90
56076;DHT22;41951;49.022;12.066;2023-04-25T10:46:14;10.50;99.90
56076;DHT22;41951;49.022;12.066;2023-04-25T10:48:46;10.80;99.90
56076;DHT22;41951;49.022;12.066;2023-04-25T10:51:18;11.20;99.90
56076;DHT22;41951;49.022;12.066;2023-04-25T10:53:45;11.40;99.90
56076;DHT22;41951;49.022;12.066;2023-04-25T10:56:16;11.70;99.90
56076;DHT22;41951;49.022;12.066;2023-04-25T10:58:45;11.80;99.90
56076;DHT22;41951;49.022;12.066;2023-04-25T11:01:13;11.70;99.90
56076;DHT22;41951;49.022;12.066;2023-04-25T11:03:43;11.70;99.90
56076;DHT22;41951;49.022;12.066;2023-04-25T11:06:23;11.70;99.90
56076;DHT22;41951;49.022;12.066;2023-04-25T11:08:53;11.70;99.90
56076;DHT22;41951;49.022;12.066;2023-04-25T11:11:19;11.70;99.90
56076;DHT22;41951;49.022;12.066;2023-04-25T11:13:48;11.60;99.90
56076;DHT22;41951;49.022;12.066;2023-04-25T11:16:14;11.50;99.90
56076;DHT22;41951;49.022;12.066;2023-04-25T11:18:46;11.40;99.90
56076;DHT22;41951;49.022;12.066;2023-04-25T11:21:13;11.20;99.90
56076;DHT22;41951;49.022;12.066;2023-04-25T11:23:39;11.20;99.90
56076;DHT22;41951;49.022;12.066;2023-04-25T11:26:04;11.10;99.90
56076;DHT22;41951;49.022;12.066;2023-04-25T11:28:30;11.00;99.90
56076;DHT22;41951;49.022;12.066;2023-04-25T11:30:56;11.00;99.90
56076;DHT22;41951;49.022;12.066;2023-04-25T11:33:25;11.10;99.90
56076;DHT22;41951;49.022;12.066;2023-04-25T11:35:55;11.30;99.90
56076;DHT22;41951;49.022;12.066;2023-04-25T11:38:25;11.60;99.90
56076;DHT22;41951;49.022;12.066;2023-04-25T11:40:52;11.70;99.90
56076;DHT22;41951;49.022;12.066;2023-04-25T11:43:20;12.00;99.90
56076;DHT22;41951;49.022;12.066;2023-04-25T11:45:49;12.00;99.90
56076;DHT22;41951;49.022;12.066;2023-04-25T11:48:17;11.60;99.90
56076;DHT22;41951;49.022;12.066;2023-04-25T11:50:42;11.80;99.90
56076;DHT22;41951;49.022;12.066;2023-04-25T11:53:08;12.00;99.90
56076;DHT22;41951;49.022;12.066;2023-04-25T11:55:34;11.90;99.90
56076;DHT22;41951;49.022;12.066;2023-04-25T11:58:00;11.90;99.90
56076;DHT22;41951;49.022;12.066;2023-04-25T12:00:26;12.00;99.90
56076;DHT22;41951;49.022;12.066;2023-04-25T12:02:53;12.30;99.90
56076;DHT22;41951;49.022;12.066;2023-04-25T12:05:20;12.40;99.90
56076;DHT22;41951;49.022;12.066;2023-04-25T12:07:48;12.80;99.90
56076;DHT22;41951;49.022;12.066;2023-04-25T12:10:15;13.20;99.90
56076;DHT22;41951;49.022;12.066;2023-04-25T12:12:42;13.30;99.90
56076;DHT22;41951;49.022;12.066;2023-04-25T12:15:11;13.30;99.90
56076;DHT22;41951;49.022;12.066;2023-04-25T12:17:38;13.30;99.90
56076;DHT22;41951;49.022;12.066;2023-04-25T12:20:14;13.20;99.90
56076;DHT22;41951;49.022;12.066;2023-04-25T12:22:45;13.10;99.90
56076;DHT22;41951;49.022;12.066;2023-04-25T12:25:39;12.90;99.90
56076;DHT22;41951;49.022;12.066;2023-04-25T12:28:18;12.80;99.90
56076;DHT22;41951;49.022;12.066;2023-04-25T12:31:05;12.80;99.90
56076;DHT22;41951;49.022;12.066;2023-04-25T12:33:33;12.70;99.90
56076;DHT22;41951;49.022;12.066;2023-04-25T12:36:00;12.70;99.90
56076;DHT22;41951;49.022;12.066;2023-04-25T12:38:30;12.70;99.90
56076;DHT22;41951;49.022;12.066;2023-04-25T12:40:57;12.60;99.90
56076;DHT22;41951;49.022;12.066;2023-04-25T12:43:23;12.50;99.90
56076;DHT22;41951;49.022;12.066;2023-04-25T12:45:50;12.40;99.90
56076;DHT22;41951;49.022;12.066;2023-04-25T12:48:16;12.60;99.90
56076;DHT22;41951;49.022;12.066;2023-04-25T12:50:42;12.70;99.90
56076;DHT22;41951;49.022;12.066;2023-04-25T12:53:08;13.00;99.90
56076;DHT22;41951;49.022;12.066;2023-04-25T12:55:33;13.20;99.90
56076;DHT22;41951;49.022;12.066;2023-04-25T12:57:59;13.40;99.90
56076;DHT22;41951;49.022;12.066;2023-04-25T13:00:24;13.40;99.80
56076;DHT22;41951;49.022;12.066;2023-04-25T13:02:51;13.10;99.00
56076;DHT22;41951;49.022;12.066;2023-04-25T13:05:17;13.10;99.90
56076;DHT22;41951;49.022;12.066;2023-04-25T13:07:43;13.10;99.90
56076;DHT22;41951;49.022;12.066;2023-04-25T13:10:08;12.90;99.90
56076;DHT22;41951;49.022;12.066;2023-04-25T13:12:34;12.90;99.90
56076;DHT22;41951;49.022;12.066;2023-04-25T13:14:59;12.90;99.90
56076;DHT22;41951;49.022;12.066;2023-04-25T13:17:25;12.80;99.90
56076;DHT22;41951;49.022;12.066;2023-04-25T13:19:50;12.70;99.90
56076;DHT22;41951;49.022;12.066;2023-04-25T13:22:16;12.50;99.90
56076;DHT22;41951;49.022;12.066;2023-04-25T13:24:42;12.30;99.90
56076;DHT22;41951;49.022;12.066;2023-04-25T13:27:08;12.30;99.90
56076;DHT22;41951;49.022;12.066;2023-04-25T13:29:34;12.20;99.90
56076;DHT22;41951;49.022;12.066;2023-04-25T13:32:01;12.20;99.90
56076;DHT22;41951;49.022;12.066;2023-04-25T13:34:28;12.20;99.90
56076;DHT22;41951;49.022;12.066;2023-04-25T13:36:54;12.10;99.90
56076;DHT22;41951;49.022;12.066;2023-04-25T13:39:19;12.10;99.90
56076;DHT22;41951;49.022;12.066;2023-04-25T13:41:45;12.00;99.90
56076;DHT22;41951;49.022;12.066;2023-04-25T13:44:11;11.90;99.90
56076;DHT22;41951;49.022;12.066;2023-04-25T13:46:36;11.90;99.90
56076;DHT22;41951;49.022;12.066;2023-04-25T13:49:03;11.90;99.90
56076;DHT22;41951;49.022;12.066;2023-04-25T13:51:28;11.90;99.90
56076;DHT22;41951;49.022;12.066;2023-04-25T13:53:54;11.90;99.90
56076;DHT22;41951;49.022;12.066;2023-04-25T13:56:20;11.90;99.90
56076;DHT22;41951;49.022;12.066;2023-04-25T13:58:47;11.70;99.90
56076;DHT22;41951;49.022;12.066;2023-04-25T14:01:12;11.60;99.90
56076;DHT22;41951;49.022;12.066;2023-04-25T14:03:39;11.60;99.90
56076;DHT22;41951;49.022;12.066;2023-04-25T14:06:05;11.60;99.90
56076;DHT22;41951;49.022;12.066;2023-04-25T14:08:31;11.80;99.90
56076;DHT22;41951;49.022;12.066;2023-04-25T14:10:57;11.90;99.90
56076;DHT22;41951;49.022;12.066;2023-04-25T14:13:22;12.00;99.90
56076;DHT22;41951;49.022;12.066;2023-04-25T14:15:48;11.90;99.90
56076;DHT22;41951;49.022;12.066;2023-04-25T14:18:15;12.10;99.90
56076;DHT22;41951;49.022;12.066;2023-04-25T14:20:41;12.40;99.90
56076;DHT22;41951;49.022;12.066;2023-04-25T14:23:06;12.70;99.90
56076;DHT22;41951;49.022;12.066;2023-04-25T14:25:32;13.20;99.90
56076;DHT22;41951;49.022;12.066;2023-04-25T14:27:58;13.80;99.70
56076;DHT22;41951;49.022;12.066;2023-04-25T14:30:23;14.20;99.90
56076;DHT22;41951;49.022;12.066;2023-04-25T14:32:49;14.50;96.70
56076;DHT22;41951;49.022;12.066;2023-04-25T14:35:15;14.40;96.30
56076;DHT22;41951;49.022;12.066;2023-04-25T14:37:41;14.00;96.80
56076;DHT22;41951;49.022;12.066;2023-04-25T14:40:08;13.70;97.20
56076;DHT22;41951;49.022;12.066;2023-04-25T14:42:38;13.40;97.10
56076;DHT22;41951;49.022;12.066;2023-04-25T14:45:05;13.20;97.20
56076;DHT22;41951;49.022;12.066;2023-04-25T14:47:32;12.90;97.50
56076;DHT22;41951;49.022;12.066;2023-04-25T14:49:58;12.60;97.30
56076;DHT22;41951;49.022;12.066;2023-04-25T14:52:24;12.50;97.40
56076;DHT22;41951;49.022;12.066;2023-04-25T14:54:50;12.60;97.20
56076;DHT22;41951;49.022;12.066;2023-04-25T14:57:16;12.30;96.90
56076;DHT22;41951;49.022;12.066;2023-04-25T14:59:41;12.20;97.20
56076;DHT22;41951;49.022;12.066;2023-04-25T15:02:07;12.10;97.20
56076;DHT22;41951;49.022;12.066;2023-04-25T15:04:33;12.10;96.90
56076;DHT22;41951;49.022;12.066;2023-04-25T15:07:01;11.90;96.90
56076;DHT22;41951;49.022;12.066;2023-04-25T15:09:26;11.80;97.30
56076;DHT22;41951;49.022;12.066;2023-04-25T15:11:52;11.90;97.30
56076;DHT22;41951;49.022;12.066;2023-04-25T15:14:18;11.70;97.10
56076;DHT22;41951;49.022;12.066;2023-04-25T15:16:43;11.80;97.40
56076;DHT22;41951;49.022;12.066;2023-04-25T15:19:09;11.90;97.60
56076;DHT22;41951;49.022;12.066;2023-04-25T15:21:35;12.30;97.80